Orlando, Florida
Traffic Map
Current Weather Conditions
Orlando, Florida
Clear
Clear
75°
Feels Like: 75°
Wind Chill: 75° Ceiling: Unl
Heat Index: 75° Visibility: 10mi
Dew Point: 64° Wind: 5mph
Humidity: 69% Direction: 50° (NE)
Pressure: 30.02in Gusts: 0mph
Raw Report DataKORL 241353Z 05004KT 10SM CLR 24/18 A3002 RMK AO2 SLP170 T02390178
Traffic Incident Summary
Active as of:
Severity:
Category:
InformationThere was an issue retrieving the traffic information for this location. Please try a different location or try again shortly.
Advertisements
At Last! Intellicast now available for iPhone and Android